Saturday, February 24, 2018, 8:22 AM GMT
Back to Local

CYSC, Sherbrooke, Que.

Location: , , Canada Lat: 45.4
Local Time: 8:22 AM GMT ( 8:22 GMT) Lon: -71.883
Time Zone: GMT Elev: 557 ft

Show me the last for .
Show Coded

Time T Td Feel RH Dir Speed Gust Alt SLP Vis Weather Sky Remarks
2018-02-24 08:00 37 36 26 93 260° 15 25 29.92 29.96 9 -RA OVC006 None
2018-02-24 07:43 36 36 25 100 260° 13 20 29.92 29.96 9 -RA OVC006 None
2018-02-24 07:04 36 36 30 100 240° 7 - 29.91 29.94 9 BKN004 OVC008 None
2018-02-24 07:01 36 36 30 100 230° 7 - 29.91 29.94 6 -RA BR OVC004 None
2018-02-24 07:00 36 36 30 100 230° 7 - 29.91 29.94 4 -RA BR OVC004 None
2018-02-24 06:54 36 36 29 100 210° 9 - 29.91 29.94 3 -RA BR OVC004 None
2018-02-24 06:29 36 34 28 93 230° 10 - 29.91 29.95 2 -RA BR OVC004 None
2018-02-24 06:00 36 34 28 93 230° 10 - 29.91 29.94 1 -RA BR OVC004 None
2018-02-24 05:50 36 34 29 93 230° 9 - 29.91 29.94 1 -RA BR OVC004 None
2018-02-24 05:00 34 34 30 100 220° 5 - 29.91 29.94 2 -RA BR OVC004 None
2018-02-24 04:58 34 34 29 100 220° 6 - 29.91 29.94 2 -RA BR OVC004 None
2018-02-24 04:27 34 34 - 100 Variable 2 - 29.91 29.95 1 -RA BR OVC004 None
2018-02-24 04:20 34 32 - 93 Variable 2 - 29.91 29.95 2 -RA BR OVC006 None
2018-02-24 04:00 34 32 - 93 Variable 2 - 29.91 29.95 3 -RA BR BKN006 OVC009 None
2018-02-24 03:54 34 34 31 100 230° 3 - 29.92 29.96 3 -RA BR OVC009 None
2018-02-24 03:46 34 32 - 93 Variable 2 - 29.92 29.96 5 BR OVC009 None
2018-02-24 03:27 34 32 - 93 Variable 2 - 29.93 29.97 9 -RA OVC009 None
2018-02-24 03:00 34 32 31 93 180° 3 - 29.94 29.98 6 BR OVC009 None
2018-02-24 02:00 34 32 27 93 170° 8 - 29.97 30.02 9 OVC016 None
2018-02-24 01:00 34 30 27 86 170° 8 - 30.00 30.04 9 OVC020 Pressure falling rapidly
2018-02-24 00:20 32 30 24 92 170° 10 - 30.02 30.07 9 OVC024 None
2018-02-24 00:17 32 30 25 92 170° 8 - 30.03 30.08 9 OVC024 None
2018-02-24 00:15 32 28 26 86 170° 7 - 30.03 30.08 9 -FZUP OVC024 None
2018-02-24 00:00 32 28 24 86 150° 9 - 30.04 30.09 8 -SN -FZUP OVC024 Pressure falling rapidly
2018-02-23 23:58 30 28 22 92 150° 9 - 30.04 30.09 7 -SN OVC024 Pressure falling rapidly
2018-02-23 23:52 30 28 23 92 140° 8 - 30.04 30.09 6 -FZRA -SN OVC024 Pressure falling rapidly
2018-02-23 23:45 30 28 22 92 150° 9 - 30.05 30.10 6 -FZRA BR OVC024 Pressure falling rapidly
2018-02-23 23:42 30 28 23 92 150° 8 - 30.06 30.11 5 -FZUP BR OVC024 Pressure falling rapidly
2018-02-23 23:36 30 28 22 92 140° 9 - 30.07 30.12 3 -SN -FZUP OVC024 Pressure falling rapidly
2018-02-23 23:29 30 28 23 92 140° 8 - 30.07 30.13 3 -SN OVC024 None
2018-02-23 23:26 30 28 23 92 140° 8 - 30.08 30.13 5 -SN OVC024 None
2018-02-23 23:12 30 27 22 86 150° 9 - 30.08 30.14 9 -SN OVC024 Pressure falling rapidly
2018-02-23 23:05 30 27 23 86 150° 8 - 30.09 30.14 9 -SN OVC026 None
2018-02-23 23:00 30 27 22 86 140° 9 - 30.10 30.15 9 OVC026 None
2018-02-23 22:59 30 27 22 86 140° 9 - 30.10 30.15 9 OVC026 None
2018-02-23 22:52 30 27 21 86 140° 10 - 30.10 30.15 9 -SN OVC028 Pressure falling rapidly
2018-02-23 22:50 30 27 21 86 150° 12 - 30.10 30.16 9 -RASN OVC028 None
2018-02-23 22:49 30 27 21 86 140° 10 - 30.10 30.16 9 -FZRA -SN OVC030 Pressure falling rapidly
2018-02-23 22:46 30 27 22 86 140° 9 - 30.11 30.16 9 -FZRA -SN OVC030 Pressure falling rapidly
2018-02-23 22:41 30 27 21 86 140° 10 - 30.11 30.16 9 -FZRA OVC032 Pressure falling rapidly
2018-02-23 22:35 30 27 21 86 140° 10 - 30.12 30.17 9 -FZRA -SN OVC032 Pressure falling rapidly
2018-02-23 22:21 30 25 22 80 140° 9 - 30.14 30.19 6 -SN OVC034 Pressure falling rapidly
2018-02-23 22:11 30 25 23 80 140° 8 - 30.15 30.20 6 -SN -FZUP OVC036 Pressure falling rapidly
2018-02-23 22:00 30 23 24 74 150° 6 - 30.16 30.21 9 -SN OVC036 None
2018-02-23 21:50 30 25 23 80 150° 7 - 30.17 30.21 8 -SN OVC038 None
2018-02-23 21:45 30 23 22 74 140° 9 - 30.15 30.20 9 -SN OVC038 None
2018-02-23 21:41 30 23 18 74 150° 9 17 30.15 30.20 9 -SN OVC038 None
2018-02-23 21:31 30 23 22 74 150° 9 - 30.16 30.21 9 -SN -FZUP OVC038 None
2018-02-23 21:15 32 21 23 63 130° 12 - 30.16 30.21 8 -SN OVC038 Pressure falling rapidly
2018-02-23 21:01 32 19 24 59 140° 10 - 30.19 30.24 9 -SN OVC040 Pressure falling rapidly
2018-02-23 21:00 32 19 24 59 140° 10 - 30.19 30.24 9 -RASN OVC040 Pressure falling rapidly
2018-02-23 20:55 32 19 23 59 150° 12 - 30.19 30.24 9 -RASN OVC040 None
2018-02-23 20:40 32 19 21 59 150° 12 17 30.20 30.25 9 -RA OVC040 None
2018-02-23 20:34 32 18 20 54 150° 9 20 30.21 30.26 9 -RASN OVC042 None
2018-02-23 20:25 32 18 20 54 130° 9 18 30.22 30.27 8 -SN BKN042 BKN049 OVC055 None
2018-02-23 20:19 34 16 22 47 140° 14 22 30.22 30.27 9 -RASN BKN042 BKN049 OVC055 Pressure falling rapidly
2018-02-23 20:09 34 14 22 43 140° 16 22 30.22 30.27 9 -RA SCT048 OVC060 Pressure falling rapidly
2018-02-23 20:00 34 12 25 40 150° 13 - 30.24 30.29 9 BKN060 OVC079 None
2018-02-23 19:00 36 12 25 37 140° 14 20 30.27 30.32 9 BKN080 Pressure falling rapidly
2018-02-23 18:00 36 12 25 37 150° 10 17 30.36 30.41 9 BKN100 Pressure falling rapidly
2018-02-23 17:54 36 12 28 37 150° 12 - 30.37 30.42 9 BKN100 Pressure falling rapidly
2018-02-23 17:00 34 10 26 37 190° 9 - 30.43 30.47 9 CLR Pressure falling rapidly
2018-02-23 16:00 28 14 22 54 70° 6 - 30.48 30.53 9 CLR Pressure falling rapidly
2018-02-23 15:00 21 10 15 62 70° 5 - 30.55 30.60 9 FEW130 None
2018-02-23 14:00 16 9 7 72 70° 6 - 30.57 30.63 9 FEW130 Pressure falling rapidly
2018-02-23 13:00 10 7 1 84 90° 6 - 30.61 30.67 9 SCT240 None
2018-02-23 12:00 9 5 -3 84 70° 7 - 30.62 30.68 9 CLR None
2018-02-23 11:00 9 5 0 84 70° 5 - 30.64 30.70 9 CLR None
2018-02-23 10:00 9 5 -1 84 60° 6 - 30.66 30.72 9 CLR None
2018-02-23 09:00 10 7 2 84 70° 5 - 30.67 30.73 9 CLR None

Support USWX by starting your Amazon purchase here.